KHVS

Hartsville Regional Airport

Hartsville, South Carolina, USA
METAR KHVS 150055Z AUTO 00000KT 10SM SCT095 25/18 A2999 RMK AO2
Observed Flight Rules
Aug-15 @ 00:55 UTC (8 minutes ago) Visual Flight Rules
Visibility Clouds
10 miles
  • Scattered at 9,500' AGL
Temperatures Readings
Current 25°C / 77°F
Dewpoint 18°C / 64°F
Humidity 65%
Altimeter 29.99" Hg
Pressure 1016 hPa
Elevation 111
METAR KHVS 150055Z AUTO 00000KT 10SM SCT095 25/18 A2999 RMK AO2
Observed Flight Rules
Aug-15 @ 00:55 UTC
(8 minutes ago)
VFR
Clouds
  • Scattered at 9,500' AGL
Temperature Dewpoint
25°C / 77°F 18°C / 64°F
Humidity Altimeter Pressure
65% 29.99" Hg 1016 hPa